Time;durP1;ratioP1;P1;durP2;ratioP2;P2;SDS_P1;SDS_P2;PMS_P1;PMS_P2;Temp;Humidity;BMP_temperature;BMP_pressure;BME280_temperature;BME280_humidity;BME280_pressure;Samples;Min_cycle;Max_cycle;Signal;HPM_P1;HPM_P2
2023/08/07 00:02:20;;;;;;;5.40;4.90;;;;;;;;;;5030262;28;20287;-48
2023/08/07 00:04:46;;;;;;;5.77;4.40;;;;;;;;;;5030267;28;20291;-49
2023/08/07 00:07:14;;;;;;;5.90;4.80;;;;;;;;;;5030117;28;20201;-49
2023/08/07 00:09:40;;;;;;;8.93;8.10;;;;;;;;;;5030073;28;20204;-49
2023/08/07 00:12:06;;;;;;;7.47;6.77;;;;;;;;;;5030263;28;20201;-49
2023/08/07 00:14:32;;;;;;;6.13;5.13;;;;;;;;;;5026356;28;20197;-49
2023/08/07 00:16:58;;;;;;;7.40;4.80;;;;;;;;;;5030422;28;20258;-49
2023/08/07 00:19:24;;;;;;;6.37;5.03;;;;;;;;;;5030081;28;20194;-49
2023/08/07 00:21:50;;;;;;;7.33;4.87;;;;;;;;;;5030423;28;20225;-48
2023/08/07 00:24:17;;;;;;;6.77;5.20;;;;;;;;;;5029996;28;20517;-48
2023/08/07 00:26:43;;;;;;;4.67;4.27;;;;;;;;;;5030019;28;20209;-48
2023/08/07 00:29:09;;;;;;;5.53;4.50;;;;;;;;;;5029927;28;20199;-50
2023/08/07 00:31:35;;;;;;;6.03;4.67;;;;;;;;;;5030213;28;20737;-49
2023/08/07 00:34:03;;;;;;;5.20;4.20;;;;;;;;;;5030980;28;20228;-49
2023/08/07 00:36:31;;;;;;;5.23;4.57;;;;;;;;;;5033757;28;20659;-49
2023/08/07 00:38:57;;;;;;;5.67;4.97;;;;;;;;;;5033647;28;20208;-49
2023/08/07 00:41:24;;;;;;;4.80;4.40;;;;;;;;;;5033822;28;20241;-50
2023/08/07 00:43:50;;;;;;;6.20;4.20;;;;;;;;;;5033861;28;20240;-50
2023/08/07 00:46:16;;;;;;;5.13;4.60;;;;;;;;;;5033685;28;20224;-50
2023/08/07 00:48:42;;;;;;;4.60;4.20;;;;;;;;;;5033811;28;20205;-50
2023/08/07 00:51:09;;;;;;;5.40;4.47;;;;;;;;;;5033281;28;20196;-49
2023/08/07 00:53:37;;;;;;;5.60;4.57;;;;;;;;;;5033527;28;20217;-48
2023/08/07 00:56:04;;;;;;;5.73;4.87;;;;;;;;;;5033309;28;20201;-48
2023/08/07 00:58:31;;;;;;;5.57;4.40;;;;;;;;;;5033253;28;20200;-51
2023/08/07 01:00:57;;;;;;;6.73;4.37;;;;;;;;;;5033261;28;20612;-50
2023/08/07 01:03:23;;;;;;;7.20;5.50;;;;;;;;;;5033201;28;20200;-47
2023/08/07 01:05:49;;;;;;;6.37;5.50;;;;;;;;;;5033364;28;20207;-50
2023/08/07 01:08:15;;;;;;;6.73;5.27;;;;;;;;;;5033107;28;20208;-50
2023/08/07 01:10:52;;;;;;;5.93;5.27;;;;;;;;;;5033150;28;20655;-49
2023/08/07 01:13:22;;;;;;;5.23;4.83;;;;;;;;;;5032798;28;20220;-50
2023/08/07 01:15:50;;;;;;;6.33;5.47;;;;;;;;;;5032929;28;20203;-50
2023/08/07 01:18:17;;;;;;;5.00;4.50;;;;;;;;;;5032920;28;20204;-50
2023/08/07 01:20:43;;;;;;;8.73;7.83;;;;;;;;;;5032942;28;20196;-50
2023/08/07 01:23:10;;;;;;;7.57;5.00;;;;;;;;;;5032939;28;20721;-50
2023/08/07 01:25:38;;;;;;;7.50;4.90;;;;;;;;;;5032907;28;20268;-50
2023/08/07 01:28:07;;;;;;;5.40;4.57;;;;;;;;;;5015177;28;20242;-49
2023/08/07 01:30:36;;;;;;;5.73;5.23;;;;;;;;;;5032801;28;20598;-50
2023/08/07 01:33:05;;;;;;;5.63;5.13;;;;;;;;;;5032689;28;20718;-50
2023/08/07 01:35:33;;;;;;;5.57;4.87;;;;;;;;;;5032720;28;20275;-50
2023/08/07 01:38:00;;;;;;;6.23;5.63;;;;;;;;;;5032733;28;20212;-50
2023/08/07 01:40:28;;;;;;;5.40;4.80;;;;;;;;;;5032469;28;20254;-50
2023/08/07 01:42:54;;;;;;;5.77;5.20;;;;;;;;;;5032747;28;20197;-50
2023/08/07 01:45:23;;;;;;;5.63;5.10;;;;;;;;;;5032351;28;20197;-48
2023/08/07 01:47:49;;;;;;;5.93;5.43;;;;;;;;;;5032714;28;20270;-47
2023/08/07 01:50:15;;;;;;;5.33;4.73;;;;;;;;;;5032369;28;20671;-48
2023/08/07 01:52:41;;;;;;;5.53;4.80;;;;;;;;;;5032422;28;20278;-48
2023/08/07 01:55:08;;;;;;;6.03;5.43;;;;;;;;;;5032548;28;20255;-48
2023/08/07 01:57:35;;;;;;;5.73;5.03;;;;;;;;;;5032347;28;20717;-48
2023/08/07 02:00:03;;;;;;;4.93;4.53;;;;;;;;;;5032260;28;20300;-48
2023/08/07 02:02:29;;;;;;;5.77;4.73;;;;;;;;;;5032102;28;20816;-49
2023/08/07 02:04:55;;;;;;;6.17;5.57;;;;;;;;;;5032243;28;20205;-48
2023/08/07 02:07:21;;;;;;;9.33;5.87;;;;;;;;;;5032286;28;20228;-49
2023/08/07 02:09:47;;;;;;;12.30;9.83;;;;;;;;;;5032181;28;20667;-48
2023/08/07 02:12:13;;;;;;;9.00;6.70;;;;;;;;;;5031788;28;20224;-47
2023/08/07 02:14:41;;;;;;;6.77;6.07;;;;;;;;;;5031976;28;20685;-48
2023/08/07 02:17:07;;;;;;;7.67;6.70;;;;;;;;;;5032049;28;20581;-49
2023/08/07 02:19:33;;;;;;;7.00;6.40;;;;;;;;;;5031843;28;20208;-48
2023/08/07 02:21:59;;;;;;;8.47;7.60;;;;;;;;;;5031689;28;20208;-48
2023/08/07 02:24:25;;;;;;;8.30;7.50;;;;;;;;;;5031598;28;20229;-48
2023/08/07 02:26:51;;;;;;;8.03;7.23;;;;;;;;;;5032067;28;20205;-49
2023/08/07 02:29:17;;;;;;;7.40;6.70;;;;;;;;;;5031583;28;20823;-48
2023/08/07 02:31:44;;;;;;;7.37;6.67;;;;;;;;;;5031576;28;20351;-49
2023/08/07 02:34:10;;;;;;;10.93;7.07;;;;;;;;;;5031620;28;20702;-48
2023/08/07 02:36:36;;;;;;;8.23;6.93;;;;;;;;;;5031679;28;20197;-49
2023/08/07 02:39:03;;;;;;;6.80;6.20;;;;;;;;;;5031483;28;20247;-49
2023/08/07 02:41:29;;;;;;;6.47;5.87;;;;;;;;;;5031515;28;20853;-48
2023/08/07 02:43:55;;;;;;;5.80;5.20;;;;;;;;;;5031290;28;20600;-49
2023/08/07 02:46:21;;;;;;;7.40;5.60;;;;;;;;;;5031547;28;20531;-49
2023/08/07 02:48:48;;;;;;;5.77;5.27;;;;;;;;;;5031629;28;20200;-49
2023/08/07 02:51:14;;;;;;;9.07;6.23;;;;;;;;;;5031340;28;20209;-48
2023/08/07 02:53:40;;;;;;;6.13;5.50;;;;;;;;;;5031092;28;20240;-49
2023/08/07 02:56:06;;;;;;;10.73;6.23;;;;;;;;;;5031204;28;20197;-48
2023/08/07 02:58:32;;;;;;;8.13;6.00;;;;;;;;;;5030766;28;20574;-48
2023/08/07 03:01:03;;;;;;;6.37;5.80;;;;;;;;;;5031232;28;20294;-48
2023/08/07 03:03:29;;;;;;;6.23;5.60;;;;;;;;;;5031002;28;20286;-48
2023/08/07 03:05:56;;;;;;;5.97;5.37;;;;;;;;;;5030975;28;20610;-49
2023/08/07 03:08:22;;;;;;;7.53;6.03;;;;;;;;;;5031088;28;20208;-49
2023/08/07 03:10:52;;;;;;;11.13;6.70;;;;;;;;;;5030813;28;20243;-49
2023/08/07 03:13:18;;;;;;;7.40;5.77;;;;;;;;;;5030839;28;20251;-49
2023/08/07 03:15:44;;;;;;;8.37;5.70;;;;;;;;;;5031072;28;20223;-49
2023/08/07 03:18:10;;;;;;;6.80;6.03;;;;;;;;;;5031063;28;20197;-48
2023/08/07 03:20:37;;;;;;;6.47;5.90;;;;;;;;;;5030849;28;20684;-49
2023/08/07 03:23:04;;;;;;;6.77;5.93;;;;;;;;;;5030930;28;20236;-48
2023/08/07 03:25:30;;;;;;;8.07;5.50;;;;;;;;;;5030559;28;20232;-48
2023/08/07 03:27:56;;;;;;;6.40;5.73;;;;;;;;;;5030603;28;20762;-48
2023/08/07 03:30:22;;;;;;;6.07;5.53;;;;;;;;;;5030727;28;20236;-48
2023/08/07 03:32:49;;;;;;;7.10;5.97;;;;;;;;;;5030784;28;20271;-49
2023/08/07 03:35:15;;;;;;;6.73;6.03;;;;;;;;;;5030524;28;20834;-49
2023/08/07 03:37:41;;;;;;;8.73;6.23;;;;;;;;;;5030472;28;20209;-49
2023/08/07 03:40:09;;;;;;;6.87;6.20;;;;;;;;;;5030804;28;20207;-49
2023/08/07 03:42:35;;;;;;;7.37;6.30;;;;;;;;;;5030486;28;20205;-49
2023/08/07 03:45:01;;;;;;;7.57;6.30;;;;;;;;;;5030496;28;20204;-49
2023/08/07 03:47:28;;;;;;;9.30;6.83;;;;;;;;;;5030311;28;20271;-49
2023/08/07 03:49:54;;;;;;;7.43;6.03;;;;;;;;;;5030619;28;20201;-49
2023/08/07 03:52:20;;;;;;;7.00;5.80;;;;;;;;;;5030331;28;20736;-49
2023/08/07 03:54:46;;;;;;;6.93;6.13;;;;;;;;;;5030497;28;20196;-48
2023/08/07 03:57:13;;;;;;;7.07;6.13;;;;;;;;;;5030361;28;20243;-49
2023/08/07 03:59:39;;;;;;;7.27;6.60;;;;;;;;;;5030093;28;20295;-49
2023/08/07 04:02:06;;;;;;;7.30;6.53;;;;;;;;;;5029955;28;20205;-49
2023/08/07 04:04:32;;;;;;;7.30;6.60;;;;;;;;;;5030201;28;20193;-49
2023/08/07 04:06:58;;;;;;;8.80;6.13;;;;;;;;;;5030354;28;20201;-49
2023/08/07 04:09:24;;;;;;;7.47;6.40;;;;;;;;;;5033270;28;20196;-50
2023/08/07 04:11:50;;;;;;;7.20;6.50;;;;;;;;;;5034563;28;20201;-49
2023/08/07 04:14:17;;;;;;;7.13;6.37;;;;;;;;;;5034023;28;20295;-48
2023/08/07 04:16:43;;;;;;;6.80;6.07;;;;;;;;;;5034110;28;20208;-49
2023/08/07 04:19:09;;;;;;;7.20;6.50;;;;;;;;;;5034074;28;20236;-49
2023/08/07 04:21:35;;;;;;;6.73;5.93;;;;;;;;;;5034149;28;20258;-49
2023/08/07 04:24:07;;;;;;;7.97;7.03;;;;;;;;;;5033942;28;20279;-49
2023/08/07 04:26:34;;;;;;;7.30;6.60;;;;;;;;;;5034213;28;20196;-49
2023/08/07 04:29:00;;;;;;;8.93;6.93;;;;;;;;;;5033858;28;20629;-48
2023/08/07 04:31:27;;;;;;;8.27;6.30;;;;;;;;;;5033813;28;20291;-48
2023/08/07 04:33:53;;;;;;;6.93;6.27;;;;;;;;;;5033796;28;20221;-49
2023/08/07 04:36:20;;;;;;;7.00;6.27;;;;;;;;;;5033913;28;20228;-48
2023/08/07 04:38:46;;;;;;;13.77;6.23;;;;;;;;;;5033871;28;20343;-48
2023/08/07 04:41:12;;;;;;;7.77;6.23;;;;;;;;;;5033772;28;20700;-48
2023/08/07 04:43:38;;;;;;;7.90;6.27;;;;;;;;;;5033532;28;20193;-48
2023/08/07 04:46:04;;;;;;;6.93;6.23;;;;;;;;;;5033827;28;20307;-48
2023/08/07 04:48:32;;;;;;;12.90;7.13;;;;;;;;;;5033439;28;20204;-48
2023/08/07 04:50:59;;;;;;;8.40;6.83;;;;;;;;;;5033592;28;20204;-48
2023/08/07 04:53:25;;;;;;;6.93;6.23;;;;;;;;;;5033263;28;20706;-48
2023/08/07 04:55:51;;;;;;;7.53;5.00;;;;;;;;;;5033577;28;20671;-49
2023/08/07 04:58:17;;;;;;;7.07;5.80;;;;;;;;;;5033544;28;20205;-49
2023/08/07 05:00:43;;;;;;;5.77;5.27;;;;;;;;;;5033633;28;20463;-49
2023/08/07 05:03:09;;;;;;;5.90;5.40;;;;;;;;;;5033226;28;20197;-49
2023/08/07 05:05:36;;;;;;;6.17;5.33;;;;;;;;;;5033375;28;20861;-49
2023/08/07 05:08:02;;;;;;;5.60;5.10;;;;;;;;;;5033546;28;20205;-49
2023/08/07 05:10:28;;;;;;;6.97;5.73;;;;;;;;;;5033093;28;20204;-49
2023/08/07 05:12:58;;;;;;;8.07;5.27;;;;;;;;;;5033049;28;20249;-49
2023/08/07 05:15:24;;;;;;;6.83;4.70;;;;;;;;;;5033005;28;20609;-49
2023/08/07 05:17:50;;;;;;;6.03;4.80;;;;;;;;;;5033427;28;20300;-48
2023/08/07 05:20:16;;;;;;;5.50;5.00;;;;;;;;;;5032409;28;20204;-49
2023/08/07 05:22:44;;;;;;;5.63;5.00;;;;;;;;;;5032845;28;20681;-49
2023/08/07 05:25:12;;;;;;;4.77;4.33;;;;;;;;;;5032733;28;20240;-49
2023/08/07 05:27:39;;;;;;;5.23;4.40;;;;;;;;;;5032866;28;20209;-49
2023/08/07 05:30:05;;;;;;;5.70;4.40;;;;;;;;;;5033274;28;20288;-49
2023/08/07 05:32:32;;;;;;;5.07;4.57;;;;;;;;;;5032616;28;20200;-49
2023/08/07 05:34:58;;;;;;;4.67;4.27;;;;;;;;;;5032772;28;20287;-49
2023/08/07 05:37:24;;;;;;;6.37;4.17;;;;;;;;;;5032614;28;20288;-49
2023/08/07 05:39:52;;;;;;;5.33;4.37;;;;;;;;;;5033061;28;20201;-49
2023/08/07 05:42:18;;;;;;;6.00;4.37;;;;;;;;;;5032550;28;20205;-50
2023/08/07 05:44:44;;;;;;;5.07;4.27;;;;;;;;;;5032544;28;20296;-49
2023/08/07 05:47:10;;;;;;;5.67;4.53;;;;;;;;;;5032374;28;20644;-49
2023/08/07 05:49:36;;;;;;;8.17;4.00;;;;;;;;;;5032737;28;20207;-49
2023/08/07 05:52:02;;;;;;;3.97;3.50;;;;;;;;;;5032502;28;20199;-49
2023/08/07 05:54:28;;;;;;;4.73;3.90;;;;;;;;;;5032118;28;20239;-49
2023/08/07 05:56:55;;;;;;;4.40;4.00;;;;;;;;;;5032257;28;20664;-49
2023/08/07 05:59:22;;;;;;;7.27;3.80;;;;;;;;;;5032342;28;20220;-50
2023/08/07 06:01:48;;;;;;;4.70;3.80;;;;;;;;;;5032577;28;20543;-49
2023/08/07 06:04:14;;;;;;;3.60;3.30;;;;;;;;;;5032315;28;20189;-49
2023/08/07 06:06:40;;;;;;;4.00;3.30;;;;;;;;;;5032249;28;20205;-49
2023/08/07 06:09:06;;;;;;;4.30;3.80;;;;;;;;;;5032374;28;20204;-49
2023/08/07 06:11:33;;;;;;;3.90;3.20;;;;;;;;;;5032202;28;20193;-49
2023/08/07 06:14:00;;;;;;;4.67;3.40;;;;;;;;;;5031781;28;20233;-50
2023/08/07 06:16:27;;;;;;;5.87;3.40;;;;;;;;;;5031993;28;20197;-50
2023/08/07 06:18:53;;;;;;;5.73;3.47;;;;;;;;;;5032230;28;20197;-49
2023/08/07 06:21:20;;;;;;;4.33;3.60;;;;;;;;;;5031876;28;20204;-49
2023/08/07 06:23:46;;;;;;;3.90;3.37;;;;;;;;;;5031644;28;20236;-50
2023/08/07 06:26:12;;;;;;;3.77;3.30;;;;;;;;;;5031710;28;20193;-50
2023/08/07 06:28:38;;;;;;;4.13;3.30;;;;;;;;;;5031681;28;20200;-49
2023/08/07 06:31:06;;;;;;;3.77;3.03;;;;;;;;;;5031405;28;20284;-50
2023/08/07 06:33:33;;;;;;;4.13;2.80;;;;;;;;;;5031238;28;20263;-50
2023/08/07 06:35:59;;;;;;;4.93;3.30;;;;;;;;;;5031559;28;20690;-51
2023/08/07 06:38:25;;;;;;;4.90;3.00;;;;;;;;;;5031428;28;20295;-50
2023/08/07 06:40:51;;;;;;;4.10;3.20;;;;;;;;;;5031833;28;20286;-49
2023/08/07 06:43:17;;;;;;;4.70;3.17;;;;;;;;;;5031629;28;20197;-49
2023/08/07 06:45:44;;;;;;;2.90;2.60;;;;;;;;;;5031308;28;20205;-49
2023/08/07 06:48:11;;;;;;;5.13;3.10;;;;;;;;;;5031284;28;20272;-48
2023/08/07 06:50:37;;;;;;;4.23;3.00;;;;;;;;;;5031396;28;20201;-53
2023/08/07 06:53:03;;;;;;;5.13;3.00;;;;;;;;;;5031315;28;20223;-54
2023/08/07 06:55:29;;;;;;;5.47;2.97;;;;;;;;;;5031189;28;20199;-53
2023/08/07 06:57:55;;;;;;;4.37;3.17;;;;;;;;;;5031183;28;20207;-53
2023/08/07 07:00:21;;;;;;;3.40;2.70;;;;;;;;;;5031194;28;20201;-53
2023/08/07 07:02:47;;;;;;;3.93;2.57;;;;;;;;;;5030207;28;20198;-54
2023/08/07 07:05:15;;;;;;;4.70;2.30;;;;;;;;;;5032305;28;20242;-55
2023/08/07 07:07:41;;;;;;;3.83;2.67;;;;;;;;;;5031517;28;20205;-55
2023/08/07 07:10:08;;;;;;;3.00;2.60;;;;;;;;;;5031622;28;20360;-54
2023/08/07 07:12:34;;;;;;;4.87;2.30;;;;;;;;;;5031342;28;20221;-54
2023/08/07 07:15:00;;;;;;;5.17;2.50;;;;;;;;;;5031364;28;20242;-53
2023/08/07 07:17:26;;;;;;;3.73;2.07;;;;;;;;;;5031100;28;20237;-53
2023/08/07 07:19:52;;;;;;;4.87;2.13;;;;;;;;;;5029352;28;20265;-49
2023/08/07 07:22:19;;;;;;;2.87;2.00;;;;;;;;;;5024916;28;20256;-50
2023/08/07 07:24:45;;;;;;;3.87;2.23;;;;;;;;;;5028439;28;20234;-49
2023/08/07 07:27:11;;;;;;;4.00;2.10;;;;;;;;;;5030853;28;20280;-49
2023/08/07 07:29:37;;;;;;;3.43;1.97;;;;;;;;;;5030881;28;20228;-52
2023/08/07 07:32:03;;;;;;;4.50;2.20;;;;;;;;;;5031090;28;20296;-51
2023/08/07 07:34:29;;;;;;;4.33;2.10;;;;;;;;;;5030410;28;20228;-54
2023/08/07 07:36:55;;;;;;;4.70;1.97;;;;;;;;;;5030754;28;20197;-51
2023/08/07 07:39:23;;;;;;;5.20;2.10;;;;;;;;;;5030924;28;20219;-50
2023/08/07 07:41:49;;;;;;;4.97;1.83;;;;;;;;;;5030904;28;20197;-51
2023/08/07 07:44:15;;;;;;;5.60;2.10;;;;;;;;;;5030376;28;20194;-50
2023/08/07 07:46:41;;;;;;;3.70;2.10;;;;;;;;;;5031736;28;20254;-50
2023/08/07 07:49:07;;;;;;;3.90;2.17;;;;;;;;;;5050535;28;20619;-50
2023/08/07 07:51:35;;;;;;;3.90;2.07;;;;;;;;;;5050687;28;20296;-50
2023/08/07 07:54:01;;;;;;;3.67;2.03;;;;;;;;;;5050561;28;20224;-57
2023/08/07 07:56:28;;;;;;;3.57;2.07;;;;;;;;;;5050479;28;20197;-50
2023/08/07 07:58:54;;;;;;;3.97;1.93;;;;;;;;;;5050862;28;20195;-50
2023/08/07 08:01:20;;;;;;;3.07;2.00;;;;;;;;;;5050493;28;20646;-52
2023/08/07 08:03:46;;;;;;;6.83;2.30;;;;;;;;;;5050548;28;20202;-51
2023/08/07 08:06:13;;;;;;;4.07;2.37;;;;;;;;;;5050737;28;20887;-50
2023/08/07 08:08:39;;;;;;;2.77;2.07;;;;;;;;;;5050348;28;20285;-50
2023/08/07 08:11:05;;;;;;;5.30;2.20;;;;;;;;;;5050476;28;20290;-49
2023/08/07 08:13:33;;;;;;;3.60;2.27;;;;;;;;;;5049294;28;20300;-48
2023/08/07 08:15:59;;;;;;;6.07;2.47;;;;;;;;;;5050385;28;20204;-48
2023/08/07 08:18:25;;;;;;;5.33;2.50;;;;;;;;;;5050098;28;20184;-48
2023/08/07 08:20:51;;;;;;;5.60;2.57;;;;;;;;;;5050495;28;20258;-48
2023/08/07 08:23:17;;;;;;;5.07;2.50;;;;;;;;;;5030202;28;20604;-49
2023/08/07 08:25:43;;;;;;;6.50;2.60;;;;;;;;;;5049982;28;20192;-48
2023/08/07 08:28:09;;;;;;;3.30;2.30;;;;;;;;;;5050268;28;20255;-50
2023/08/07 08:30:37;;;;;;;5.27;2.30;;;;;;;;;;5050361;28;20201;-48
2023/08/07 08:33:05;;;;;;;5.80;2.50;;;;;;;;;;5050437;28;20784;-49
2023/08/07 08:35:31;;;;;;;3.67;2.37;;;;;;;;;;5050141;28;20204;-49
2023/08/07 08:37:57;;;;;;;3.53;2.20;;;;;;;;;;5049900;28;20770;-47
2023/08/07 08:40:24;;;;;;;5.47;2.50;;;;;;;;;;5050426;28;20299;-49
2023/08/07 08:42:53;;;;;;;6.07;2.50;;;;;;;;;;5049857;28;20207;-48
2023/08/07 08:45:19;;;;;;;5.17;2.20;;;;;;;;;;5049909;28;20205;-50
2023/08/07 08:47:47;;;;;;;7.23;2.63;;;;;;;;;;5049851;28;20680;-48
2023/08/07 08:50:14;;;;;;;5.93;2.60;;;;;;;;;;5049808;28;20196;-51
2023/08/07 08:52:42;;;;;;;4.13;2.17;;;;;;;;;;5049834;28;20204;-50
2023/08/07 08:55:08;;;;;;;5.13;2.10;;;;;;;;;;5050588;28;20222;-50
2023/08/07 08:57:35;;;;;;;5.27;2.43;;;;;;;;;;5049788;28;20636;-50
2023/08/07 09:00:06;;;;;;;11.00;8.10;;;;;;;;;;5053744;28;20202;-50
2023/08/07 09:02:32;;;;;;;8.03;3.00;;;;;;;;;;5053188;28;20205;-49
2023/08/07 09:05:00;;;;;;;5.13;2.53;;;;;;;;;;5053466;28;20206;-49
2023/08/07 09:07:27;;;;;;;4.97;2.50;;;;;;;;;;5053678;28;20296;-50
2023/08/07 09:09:53;;;;;;;6.43;2.53;;;;;;;;;;5053493;28;20194;-49
2023/08/07 09:12:20;;;;;;;5.23;2.50;;;;;;;;;;5053578;28;20212;-49
2023/08/07 09:14:50;;;;;;;3.33;2.40;;;;;;;;;;5052887;28;20274;-49
2023/08/07 09:17:16;;;;;;;6.70;2.90;;;;;;;;;;5053362;28;20193;-49
2023/08/07 09:19:42;;;;;;;9.00;2.87;;;;;;;;;;5053373;28;20680;-49
2023/08/07 09:22:10;;;;;;;5.80;2.60;;;;;;;;;;5053318;28;20228;-49
2023/08/07 09:24:36;;;;;;;6.37;2.90;;;;;;;;;;5053019;28;20738;-49
2023/08/07 09:27:02;;;;;;;6.63;2.70;;;;;;;;;;5052588;28;20307;-49
2023/08/07 09:29:28;;;;;;;4.53;2.10;;;;;;;;;;5053018;28;20240;-49
2023/08/07 09:31:54;;;;;;;6.00;2.27;;;;;;;;;;5053127;28;20217;-50
2023/08/07 09:34:21;;;;;;;7.03;3.10;;;;;;;;;;5053207;28;20229;-49
2023/08/07 09:36:47;;;;;;;4.50;2.60;;;;;;;;;;5052925;28;20206;-49
2023/08/07 09:39:14;;;;;;;5.40;2.27;;;;;;;;;;5049137;28;20209;-49
2023/08/07 09:41:40;;;;;;;6.23;2.27;;;;;;;;;;5052873;28;20207;-50
2023/08/07 09:44:08;;;;;;;6.53;2.27;;;;;;;;;;5053283;28;20219;-50
2023/08/07 09:46:41;;;;;;;6.80;2.30;;;;;;;;;;5052746;28;20202;-49
2023/08/07 09:49:07;;;;;;;6.87;2.37;;;;;;;;;;5053022;28;20244;-49
2023/08/07 09:51:41;;;;;;;8.53;2.57;;;;;;;;;;5052130;28;20226;-50
2023/08/07 09:54:07;;;;;;;3.90;2.10;;;;;;;;;;5052583;28;20644;-51
2023/08/07 09:56:35;;;;;;;5.03;2.13;;;;;;;;;;5052326;28;20205;-48
2023/08/07 09:59:01;;;;;;;4.60;2.23;;;;;;;;;;5052356;28;20254;-48
2023/08/07 10:01:27;;;;;;;4.93;2.10;;;;;;;;;;5052346;28;20196;-48
2023/08/07 10:03:53;;;;;;;4.43;2.10;;;;;;;;;;5051972;28;20194;-48
2023/08/07 10:06:20;;;;;;;6.03;2.03;;;;;;;;;;5052133;28;20269;-48
2023/08/07 10:08:46;;;;;;;6.03;2.43;;;;;;;;;;5052106;28;20264;-48
2023/08/07 10:11:14;;;;;;;4.80;2.27;;;;;;;;;;5052194;28;20230;-49
2023/08/07 10:13:41;;;;;;;5.63;2.23;;;;;;;;;;5045765;28;20735;-48
2023/08/07 10:16:07;;;;;;;5.60;2.23;;;;;;;;;;5032084;28;20651;-48
2023/08/07 10:18:34;;;;;;;4.30;2.03;;;;;;;;;;5032207;28;20230;-47
2023/08/07 10:21:01;;;;;;;5.93;2.50;;;;;;;;;;5032348;28;20193;-47
2023/08/07 10:23:27;;;;;;;5.30;2.50;;;;;;;;;;5031938;28;20343;-48
2023/08/07 10:25:54;;;;;;;4.87;2.40;;;;;;;;;;5031887;28;20231;-47
2023/08/07 10:28:20;;;;;;;6.27;2.50;;;;;;;;;;5031667;28;20203;-47
2023/08/07 10:30:48;;;;;;;4.07;1.93;;;;;;;;;;5031868;28;20239;-48
2023/08/07 10:33:15;;;;;;;5.13;2.27;;;;;;;;;;5031991;28;20576;-48
2023/08/07 10:35:46;;;;;;;6.10;2.90;;;;;;;;;;5031770;28;20198;-49
2023/08/07 10:38:12;;;;;;;7.90;2.43;;;;;;;;;;5031913;28;20297;-48
2023/08/07 10:40:53;;;;;;;8.40;2.47;;;;;;;;;;5031085;28;20296;-49
2023/08/07 10:43:19;;;;;;;4.47;2.17;;;;;;;;;;5031424;28;20204;-49
2023/08/07 10:45:45;;;;;;;6.60;2.20;;;;;;;;;;5031566;28;20232;-49
2023/08/07 10:48:13;;;;;;;4.67;2.23;;;;;;;;;;5031648;28;20243;-49
2023/08/07 10:50:49;;;;;;;4.97;2.20;;;;;;;;;;5031428;28;20213;-50
2023/08/07 10:53:20;;;;;;;9.00;2.93;;;;;;;;;;5029474;28;20258;-50
2023/08/07 10:55:46;;;;;;;5.60;2.67;;;;;;;;;;5031319;28;20213;-50
2023/08/07 10:58:23;;;;;;;6.30;2.43;;;;;;;;;;5031530;28;20204;-48
2023/08/07 11:00:49;;;;;;;4.40;2.20;;;;;;;;;;5029250;28;20212;-48
2023/08/07 11:03:26;;;;;;;5.70;1.63;;;;;;;;;;5029546;28;20188;-49
2023/08/07 11:05:52;;;;;;;2.97;1.43;;;;;;;;;;5031448;28;20294;-49
2023/08/07 11:08:22;;;;;;;3.17;1.70;;;;;;;;;;5031618;28;20237;-48
2023/08/07 11:10:48;;;;;;;3.17;1.70;;;;;;;;;;5031411;28;20230;-49
2023/08/07 11:13:14;;;;;;;3.77;1.60;;;;;;;;;;5031393;28;20293;-49
2023/08/07 11:15:40;;;;;;;3.60;1.80;;;;;;;;;;5031208;28;20196;-49
2023/08/07 11:18:06;;;;;;;4.90;1.93;;;;;;;;;;5031015;28;20211;-49
2023/08/07 11:20:33;;;;;;;3.63;1.80;;;;;;;;;;5031409;28;20198;-49
2023/08/07 11:22:59;;;;;;;3.00;1.80;;;;;;;;;;5031169;28;20847;-48
2023/08/07 11:25:26;;;;;;;4.43;1.80;;;;;;;;;;5030987;28;20235;-49
2023/08/07 11:27:52;;;;;;;4.37;1.90;;;;;;;;;;5031102;28;20262;-49
2023/08/07 11:30:19;;;;;;;7.07;2.27;;;;;;;;;;5031176;28;20196;-50
2023/08/07 11:32:45;;;;;;;4.17;1.83;;;;;;;;;;5030943;28;20571;-50
2023/08/07 11:35:11;;;;;;;5.73;1.80;;;;;;;;;;5030882;28;20706;-49
2023/08/07 11:37:45;;;;;;;6.57;1.73;;;;;;;;;;5030845;28;20204;-48
2023/08/07 11:40:11;;;;;;;2.73;1.80;;;;;;;;;;5030950;28;20199;-49
2023/08/07 11:42:37;;;;;;;3.10;1.90;;;;;;;;;;5030780;28;20588;-49
2023/08/07 11:45:04;;;;;;;4.33;2.13;;;;;;;;;;5031001;28;20213;-49
2023/08/07 11:47:30;;;;;;;3.23;1.90;;;;;;;;;;5030816;28;20323;-48
2023/08/07 11:49:56;;;;;;;3.23;1.83;;;;;;;;;;5030778;28;20287;-49
2023/08/07 11:52:23;;;;;;;3.20;1.70;;;;;;;;;;5030960;28;20292;-50
2023/08/07 11:54:52;;;;;;;6.30;1.90;;;;;;;;;;5030786;28;20232;-49
2023/08/07 11:57:20;;;;;;;2.90;1.80;;;;;;;;;;5030989;28;20685;-47
2023/08/07 11:59:50;;;;;;;4.60;3.17;;;;;;;;;;5030782;28;20196;-48
2023/08/07 12:02:16;;;;;;;2.80;1.80;;;;;;;;;;5030759;28;20205;-50
2023/08/07 12:04:42;;;;;;;3.30;1.60;;;;;;;;;;5030800;28;20234;-49
2023/08/07 12:07:10;;;;;;;2.40;1.73;;;;;;;;;;5030884;28;20200;-49
2023/08/07 12:09:38;;;;;;;2.40;1.60;;;;;;;;;;5030857;28;20198;-48
2023/08/07 12:12:06;;;;;;;3.97;2.20;;;;;;;;;;5030752;28;20562;-48
2023/08/07 12:14:32;;;;;;;4.90;2.63;;;;;;;;;;5030379;28;20696;-48
2023/08/07 12:16:58;;;;;;;6.50;2.37;;;;;;;;;;5030199;28;20241;-49
2023/08/07 12:19:24;;;;;;;7.37;2.40;;;;;;;;;;5030696;28;20197;-48
2023/08/07 12:21:50;;;;;;;8.07;2.57;;;;;;;;;;5030362;28;20275;-48
2023/08/07 12:24:16;;;;;;;3.07;1.77;;;;;;;;;;5030505;28;20296;-49
2023/08/07 12:26:42;;;;;;;6.00;2.40;;;;;;;;;;5030402;28;20243;-49
2023/08/07 12:29:09;;;;;;;5.70;2.23;;;;;;;;;;5030568;28;20228;-49
2023/08/07 12:31:35;;;;;;;5.30;2.07;;;;;;;;;;5034352;28;20197;-49
2023/08/07 12:34:01;;;;;;;6.03;3.70;;;;;;;;;;5016483;28;20227;-49
2023/08/07 12:36:27;;;;;;;4.00;2.43;;;;;;;;;;5034265;28;20201;-49
2023/08/07 12:38:53;;;;;;;7.70;2.30;;;;;;;;;;5034201;28;20251;-48
2023/08/07 12:41:19;;;;;;;6.40;2.73;;;;;;;;;;5034342;28;20204;-49
2023/08/07 12:43:46;;;;;;;4.70;2.23;;;;;;;;;;5034019;28;20208;-49
2023/08/07 12:46:13;;;;;;;3.40;2.10;;;;;;;;;;5034178;28;20208;-50
2023/08/07 12:48:39;;;;;;;3.63;2.00;;;;;;;;;;5033825;28;20224;-50
2023/08/07 12:51:05;;;;;;;5.27;2.53;;;;;;;;;;5034141;28;20255;-49
2023/08/07 12:53:31;;;;;;;6.73;2.20;;;;;;;;;;5033632;28;20715;-50
2023/08/07 12:55:57;;;;;;;4.83;2.33;;;;;;;;;;5033864;28;20201;-52
2023/08/07 12:58:27;;;;;;;6.73;2.57;;;;;;;;;;5033952;28;20258;-50
2023/08/07 13:00:53;;;;;;;7.27;2.20;;;;;;;;;;5033443;28;20258;-51
2023/08/07 13:03:21;;;;;;;4.13;2.23;;;;;;;;;;5029377;28;20200;-49
2023/08/07 13:05:47;;;;;;;4.97;2.30;;;;;;;;;;5030713;28;20220;-50
2023/08/07 13:08:13;;;;;;;5.93;3.13;;;;;;;;;;5033739;28;20195;-49
2023/08/07 13:10:39;;;;;;;5.57;2.10;;;;;;;;;;5033644;28;20192;-48
2023/08/07 13:13:05;;;;;;;5.20;2.00;;;;;;;;;;5033683;28;20634;-49
2023/08/07 13:15:31;;;;;;;7.43;2.67;;;;;;;;;;5033572;28;20288;-51
2023/08/07 13:17:57;;;;;;;5.03;2.13;;;;;;;;;;5033291;28;20204;-50
2023/08/07 13:20:26;;;;;;;5.67;2.13;;;;;;;;;;5032873;28;20204;-49
2023/08/07 13:22:52;;;;;;;6.53;2.60;;;;;;;;;;5033233;28;20225;-50
2023/08/07 13:25:18;;;;;;;4.17;1.80;;;;;;;;;;5033252;28;20278;-50
2023/08/07 13:27:44;;;;;;;4.80;2.00;;;;;;;;;;5033183;28;20196;-49
2023/08/07 13:30:11;;;;;;;3.20;2.03;;;;;;;;;;5033218;28;20200;-49
2023/08/07 13:32:37;;;;;;;6.03;2.13;;;;;;;;;;5033043;28;20199;-49
2023/08/07 13:35:03;;;;;;;6.60;2.50;;;;;;;;;;5032987;28;20239;-49
2023/08/07 13:37:30;;;;;;;9.40;2.30;;;;;;;;;;5033158;28;20231;-50
2023/08/07 13:39:56;;;;;;;4.33;2.00;;;;;;;;;;5032590;28;20204;-50
2023/08/07 13:42:25;;;;;;;9.67;2.43;;;;;;;;;;5032590;28;20224;-49
2023/08/07 13:44:51;;;;;;;6.60;2.00;;;;;;;;;;5032344;28;20196;-49
2023/08/07 13:47:17;;;;;;;5.20;2.27;;;;;;;;;;5032857;28;20199;-49
2023/08/07 13:49:43;;;;;;;5.07;2.00;;;;;;;;;;5032517;28;20285;-48
2023/08/07 13:52:09;;;;;;;6.87;4.53;;;;;;;;;;5032844;28;20624;-49
2023/08/07 13:54:37;;;;;;;5.90;2.37;;;;;;;;;;5032737;28;20264;-49
2023/08/07 13:57:03;;;;;;;5.30;2.43;;;;;;;;;;5032332;28;20201;-49
2023/08/07 13:59:29;;;;;;;6.40;2.47;;;;;;;;;;5032572;28;20256;-50
2023/08/07 14:01:56;;;;;;;9.17;2.50;;;;;;;;;;5032454;28;20203;-49
2023/08/07 14:04:22;;;;;;;3.87;2.30;;;;;;;;;;5030877;28;20612;-49
2023/08/07 14:06:48;;;;;;;4.60;2.30;;;;;;;;;;5030691;28;20223;-49
2023/08/07 14:09:14;;;;;;;5.37;2.53;;;;;;;;;;5032481;28;20368;-49
2023/08/07 14:11:41;;;;;;;4.07;1.90;;;;;;;;;;5032480;28;20212;-49
2023/08/07 14:14:07;;;;;;;5.90;1.97;;;;;;;;;;5032633;28;20286;-49
2023/08/07 14:16:33;;;;;;;4.60;2.33;;;;;;;;;;5028931;28;20201;-49
2023/08/07 14:18:59;;;;;;;6.70;2.50;;;;;;;;;;5032489;28;20212;-49
2023/08/07 14:21:25;;;;;;;4.20;2.30;;;;;;;;;;5030545;28;20195;-49
2023/08/07 14:23:51;;;;;;;4.63;2.23;;;;;;;;;;5029931;28;20308;-49
2023/08/07 14:26:18;;;;;;;3.90;2.20;;;;;;;;;;5031681;28;20333;-49
2023/08/07 14:28:45;;;;;;;5.33;2.07;;;;;;;;;;5031644;28;20201;-49
2023/08/07 14:31:11;;;;;;;5.07;2.27;;;;;;;;;;5031662;28;20596;-50
2023/08/07 14:33:38;;;;;;;5.93;2.13;;;;;;;;;;5031660;28;20320;-49
2023/08/07 14:36:05;;;;;;;5.77;3.70;;;;;;;;;;5031494;28;20611;-49
2023/08/07 14:38:31;;;;;;;3.60;2.07;;;;;;;;;;5031589;28;20546;-49
2023/08/07 14:40:59;;;;;;;5.30;2.00;;;;;;;;;;5031534;28;20280;-49